Time;durP1;ratioP1;P1;durP2;ratioP2;P2;SDS_P1;SDS_P2;PMS_P1;PMS_P2;Temp;Humidity;BMP_temperature;BMP_pressure;BME280_temperature;BME280_humidity;BME280_pressure;Samples;Min_cycle;Max_cycle;Signal;HPM_P1;HPM_P2
2021/01/17 00:00:53;;;;;;;26.80;14.45;;;-0.40;99.90;;;0.22;87.71;100691.91;5002285;28;20026;-84
2021/01/17 00:03:22;;;;;;;29.27;14.07;;;-0.40;99.90;;;0.16;88.31;100682.88;5001658;28;20411;-84
2021/01/17 00:05:49;;;;;;;27.42;15.25;;;-0.40;99.90;;;0.23;88.05;100682.56;5002824;28;20478;-83
2021/01/17 00:08:18;;;;;;;27.65;14.20;;;-0.40;99.90;;;0.20;88.16;100681.22;5004586;28;20110;-84
2021/01/17 00:10:45;;;;;;;28.13;14.40;;;-0.40;99.90;;;0.08;88.46;100677.19;5004896;28;20117;-85
2021/01/17 00:13:14;;;;;;;31.35;16.88;;;-0.40;99.90;;;0.10;88.48;100672.25;5003444;28;20034;-83
2021/01/17 00:15:40;;;;;;;30.98;16.08;;;-0.40;99.90;;;0.12;88.52;100667.28;5001577;28;20030;-83
2021/01/17 00:18:09;;;;;;;30.73;15.90;;;-0.40;99.90;;;0.08;88.85;100667.03;5002202;28;20057;-83
2021/01/17 00:20:35;;;;;;;30.63;16.08;;;-0.40;99.90;;;0.15;88.72;100661.22;5018495;28;20026;-85
2021/01/17 00:23:06;;;;;;;29.73;16.40;;;-0.40;99.90;;;0.15;88.60;100662.03;5018227;28;20025;-83
2021/01/17 00:25:33;;;;;;;29.48;15.18;;;-0.40;99.90;;;0.14;88.48;100649.41;5019327;28;20062;-83
2021/01/17 00:28:02;;;;;;;31.88;14.50;;;-0.40;99.90;;;0.12;88.72;100640.66;5002223;28;20038;-82
2021/01/17 00:30:32;;;;;;;26.42;15.02;;;-0.40;99.90;;;0.08;88.66;100633.25;4999869;28;20026;-84
2021/01/17 00:33:02;;;;;;;28.95;15.35;;;-0.40;99.90;;;0.14;88.63;100632.94;5023725;28;20076;-80
2021/01/17 00:35:34;;;;;;;29.48;15.13;;;-0.40;99.90;;;0.06;88.48;100616.28;5004921;28;20037;-84
2021/01/17 00:38:03;;;;;;;29.50;15.50;;;-0.40;99.90;;;0.08;88.46;100617.59;5022717;28;20117;-82
2021/01/17 00:40:29;;;;;;;30.08;15.27;;;-0.40;99.90;;;0.10;88.43;100609.88;5018125;28;20021;-85
2021/01/17 00:42:56;;;;;;;29.08;14.77;;;-0.40;99.90;;;0.12;88.13;100620.59;5026453;28;20130;-82
2021/01/17 00:45:38;;;;;;;32.47;15.40;;;-0.40;99.90;;;0.21;88.03;100616.94;5020815;28;20037;-83
2021/01/17 00:48:07;;;;;;;27.52;14.25;;;-0.30;99.90;;;0.17;88.19;100618.63;5021915;28;20029;-82
2021/01/17 00:50:44;;;;;;;28.25;14.77;;;-0.40;99.90;;;0.25;87.45;100608.94;5057894;28;20064;-82
2021/01/17 00:53:10;;;;;;;30.30;15.68;;;-0.30;99.90;;;0.20;87.93;100617.22;5040380;28;20025;-82
2021/01/17 00:55:36;;;;;;;29.30;14.35;;;-0.30;99.90;;;0.22;87.84;100615.00;5040238;28;20060;-82
2021/01/17 00:58:02;;;;;;;27.52;15.07;;;-0.30;99.90;;;0.26;87.73;100616.88;5039988;28;20033;-83
2021/01/17 01:00:29;;;;;;;30.17;15.20;;;-0.40;99.90;;;0.26;87.74;100614.13;5040040;28;20037;-81
2021/01/17 01:02:55;;;;;;;27.90;15.45;;;-0.40;99.90;;;0.26;87.50;100618.78;5040241;28;20030;-82
2021/01/17 01:05:24;;;;;;;30.05;15.63;;;-0.40;99.90;;;0.21;88.16;100607.88;5037251;28;20048;-82
2021/01/17 01:07:52;;;;;;;29.50;15.32;;;-0.40;99.90;;;0.26;87.81;100622.38;5019374;28;20030;-83
2021/01/17 01:10:18;;;;;;;28.90;15.38;;;-0.40;99.90;;;0.26;87.81;100618.78;5014879;28;20038;-81
2021/01/17 01:12:44;;;;;;;27.58;15.57;;;-0.40;99.90;;;0.24;88.03;100612.78;5013191;28;20022;-82
2021/01/17 01:15:11;;;;;;;32.70;16.83;;;-0.40;99.90;;;0.24;87.77;100618.28;5017965;28;20041;-83
2021/01/17 01:17:48;;;;;;;30.13;15.00;;;-0.40;99.90;;;0.26;87.77;100616.88;5019998;28;20026;-81
2021/01/17 01:20:14;;;;;;;31.05;15.07;;;-0.40;99.90;;;0.17;88.29;100615.03;5018678;28;20034;-85
2021/01/17 01:22:42;;;;;;;28.23;15.38;;;-0.40;99.90;;;0.13;88.39;100612.06;5012507;28;20029;-81
2021/01/17 01:25:10;;;;;;;32.90;17.40;;;-0.40;99.90;;;0.19;87.95;100615.59;5020854;28;20497;-83
2021/01/17 01:27:37;;;;;;;32.53;16.38;;;-0.40;99.90;;;0.16;88.42;100607.94;5021932;28;20041;-84
2021/01/17 01:30:07;;;;;;;30.60;16.10;;;-0.40;99.90;;;0.12;88.73;100609.63;5003943;28;20501;-83
2021/01/17 01:32:34;;;;;;;34.38;16.08;;;-0.40;99.90;;;0.08;88.43;100611.28;5008068;28;20071;-84
2021/01/17 01:35:00;;;;;;;31.38;15.40;;;-0.40;99.90;;;0.14;88.60;100613.69;5019521;28;20030;-85
2021/01/17 01:37:26;;;;;;;30.60;15.43;;;-0.40;99.90;;;0.12;88.53;100613.19;5020497;28;20139;-84
2021/01/17 01:39:52;;;;;;;29.88;15.90;;;-0.40;99.90;;;0.10;88.79;100607.16;5038494;28;20497;-83
2021/01/17 01:42:21;;;;;;;29.95;15.45;;;-0.40;99.90;;;0.13;89.11;100606.56;5001679;28;20064;-83
2021/01/17 01:44:47;;;;;;;32.33;15.82;;;-0.40;99.90;;;0.06;89.62;100602.53;5001197;28;20061;-84
2021/01/17 01:47:29;;;;;;;31.63;16.60;;;-0.40;99.90;;;0.12;89.59;100607.69;5000573;28;20050;-84
2021/01/17 01:49:56;;;;;;;35.25;17.20;;;-0.40;99.90;;;0.09;89.21;100616.50;5003540;28;20044;-84
2021/01/17 01:52:23;;;;;;;33.92;16.33;;;-0.40;99.90;;;0.13;89.20;100612.06;5008674;28;20045;-82
2021/01/17 01:54:50;;;;;;;32.33;16.50;;;-0.40;99.90;;;0.13;89.42;100614.00;5029909;28;20393;-85
2021/01/17 01:57:18;;;;;;;28.58;14.85;;;-0.40;99.90;;;0.25;88.93;100608.94;5019862;28;20030;-82
2021/01/17 01:59:43;;;;;;;31.40;15.88;;;-0.40;99.90;;;0.29;88.75;100616.28;5001934;28;20535;-85
2021/01/17 02:02:11;;;;;;;28.00;15.18;;;-0.40;99.90;;;0.21;88.96;100611.44;5017778;28;20029;-83
2021/01/17 02:04:38;;;;;;;37.42;17.55;;;-0.40;99.90;;;0.25;89.04;100609.75;4998697;28;20065;-83
2021/01/17 02:07:54;;;;;;;29.38;15.25;;;-0.40;99.90;;;0.26;89.18;100610.56;5008730;28;20063;-83
2021/01/17 02:10:21;;;;;;;31.38;15.57;;;-0.40;99.90;;;0.32;88.89;100612.16;5019844;28;20029;-82
2021/01/17 02:13:00;;;;;;;33.13;16.52;;;-0.30;99.90;;;0.32;88.94;100607.47;5036405;28;20117;-84
2021/01/17 02:15:40;;;;;;;29.38;16.58;;;-0.40;99.90;;;0.29;88.97;100619.03;5018804;28;20041;-84
2021/01/17 02:18:09;;;;;;;30.35;16.25;;;-0.40;99.90;;;0.33;88.83;100616.53;5019741;28;20036;-83
2021/01/17 02:20:40;;;;;;;30.77;15.85;;;-0.40;99.90;;;0.33;88.83;100616.53;5024105;28;20034;-84
2021/01/17 02:23:27;;;;;;;34.38;15.68;;;-0.40;99.90;;;0.25;88.96;100611.69;5022299;28;20060;-84
2021/01/17 02:25:54;;;;;;;33.58;16.33;;;-0.40;99.90;;;0.27;89.23;100620.44;5022937;28;20767;-84
2021/01/17 02:28:21;;;;;;;33.85;16.92;;;-0.40;99.90;;;0.22;89.36;100617.75;5040004;28;20430;-85
2021/01/17 02:30:58;;;;;;;31.88;17.15;;;-0.40;99.90;;;0.20;89.74;100617.22;5021554;28;20123;-82
2021/01/17 02:33:38;;;;;;;34.90;16.88;;;-0.40;99.90;;;0.29;89.29;100615.50;5021112;28;20040;-84
2021/01/17 02:36:34;;;;;;;37.45;18.40;;;-0.40;99.90;;;0.19;89.69;100615.59;5021197;28;20033;-82
2021/01/17 02:39:39;;;;;;;34.10;16.98;;;-0.40;99.90;;;0.26;89.79;100616.03;5021603;28;20564;-83
2021/01/17 02:42:06;;;;;;;33.20;17.13;;;-0.40;99.90;;;0.26;89.84;100616.88;5021686;28;20029;-83
2021/01/17 02:44:34;;;;;;;36.28;18.33;;;-0.40;99.90;;;0.27;90.01;100618.50;5022678;28;20034;-84
2021/01/17 02:47:02;;;;;;;33.53;16.95;;;-0.40;99.90;;;0.27;89.80;100620.44;5022608;28;20032;-83
2021/01/17 02:49:30;;;;;;;32.80;16.67;;;-0.40;99.90;;;0.34;89.42;100630.00;5022978;28;20056;-83
2021/01/17 02:52:01;;;;;;;39.13;17.38;;;-0.40;99.90;;;0.35;89.24;100623.34;5041223;28;20021;-84
2021/01/17 02:54:45;;;;;;;35.63;18.38;;;-0.40;99.90;;;0.30;89.56;100620.69;5022668;28;20025;-83
2021/01/17 02:57:17;;;;;;;34.50;19.05;;;-0.40;99.90;;;0.25;89.70;100615.25;5021659;28;20504;-84
2021/01/17 03:00:07;;;;;;;36.78;17.80;;;-0.40;99.90;;;0.28;89.63;100611.91;5003079;28;20116;-83
2021/01/17 03:02:42;;;;;;;32.83;16.67;;;-0.40;99.90;;;0.30;89.74;100617.94;5001844;28;20025;-86
2021/01/17 03:05:14;;;;;;;35.88;18.15;;;-0.40;99.90;;;0.32;89.59;100617.66;5001928;28;20036;-85
2021/01/17 03:07:47;;;;;;;36.75;18.27;;;-0.40;99.90;;;0.31;89.86;100610.50;5019469;28;20367;-84
2021/01/17 03:10:14;;;;;;;32.25;17.10;;;-0.40;99.90;;;0.30;89.81;100617.09;5001811;28;20091;-87
2021/01/17 03:12:39;;;;;;;37.38;18.02;;;-0.40;99.90;;;0.29;90.24;100610.78;5019448;28;20030;-86
2021/01/17 03:15:07;;;;;;;35.53;17.58;;;-0.30;99.90;;;0.24;90.54;100608.13;5020075;28;20410;-82
2021/01/17 03:17:33;;;;;;;39.55;19.10;;;-0.40;99.90;;;0.19;90.86;100604.59;5002460;28;20040;-83
2021/01/17 03:19:59;;;;;;;38.20;17.77;;;-0.40;99.90;;;0.10;91.00;100607.16;5002558;28;20022;-87
2021/01/17 03:22:26;;;;;;;36.35;18.38;;;-0.40;99.90;;;0.08;91.29;100612.13;5003587;28;20026;-84
2021/01/17 03:24:52;;;;;;;39.70;18.35;;;-0.50;99.90;;;0.08;91.32;100619.53;5002238;28;20030;-87
2021/01/17 03:27:18;;;;;;;43.40;20.15;;;-0.50;99.90;;;0.15;90.96;100611.78;5001813;28;20062;-85
2021/01/17 03:29:43;;;;;;;37.63;18.45;;;-0.50;99.90;;;0.05;91.27;100603.63;5020518;28;20022;-84
2021/01/17 03:32:09;;;;;;;39.20;18.60;;;-0.50;99.90;;;0.06;91.42;100616.28;5001707;28;20053;-86
2021/01/17 03:34:35;;;;;;;40.20;19.33;;;-0.50;99.90;;;0.01;91.77;100608.88;5020325;28;20030;-87
2021/01/17 03:37:06;;;;;;;42.65;19.77;;;-0.50;99.90;;;0.09;91.46;100613.78;5003446;28;20053;-87
2021/01/17 03:39:32;;;;;;;42.13;20.10;;;-0.50;99.90;;;0.04;91.70;100607.47;5022613;28;20022;-85
2021/01/17 03:41:58;;;;;;;41.22;19.85;;;-0.50;99.90;;;0.03;91.90;100614.09;5005561;28;20056;-85
2021/01/17 03:44:24;;;;;;;40.40;20.27;;;-0.50;99.90;;;0.03;91.48;100605.88;5036229;28;20046;-83
2021/01/17 03:46:53;;;;;;;35.45;20.05;;;-0.50;99.90;;;0.04;91.46;100605.56;5017905;28;20038;-84
2021/01/17 03:49:19;;;;;;;46.42;19.25;;;-0.50;99.90;;;0.09;91.22;100605.53;5026456;28;20048;-84
2021/01/17 03:51:44;;;;;;;44.78;21.00;;;-0.50;99.90;;;0.09;91.64;100599.22;5023444;28;20034;-86
2021/01/17 03:54:10;;;;;;;44.92;21.27;;;-0.50;99.90;;;-0.05;91.66;100597.16;5035517;28;20305;-85
2021/01/17 03:56:36;;;;;;;41.78;19.60;;;-0.50;99.90;;;0.02;91.30;100594.06;5006886;28;20052;-84
2021/01/17 03:59:02;;;;;;;44.40;20.33;;;-0.50;99.90;;;-0.10;91.67;100593.63;5023503;28;20029;-83
2021/01/17 04:01:29;;;;;;;41.88;19.40;;;-0.50;99.90;;;-0.02;91.19;100595.75;5013818;28;20053;-86
2021/01/17 04:04:00;;;;;;;38.72;20.05;;;-0.50;99.90;;;0.03;91.54;100592.13;5016156;28;20029;-82
2021/01/17 04:06:27;;;;;;;42.10;20.02;;;-0.50;99.90;;;-0.10;91.90;100599.91;5005646;28;20037;-84
2021/01/17 04:08:54;;;;;;;42.17;19.63;;;-0.50;99.90;;;-0.05;91.49;100601.81;5020733;28;20088;-85
2021/01/17 04:11:20;;;;;;;41.25;20.15;;;-0.50;99.90;;;0.01;91.21;100606.13;5031628;28;20026;-84
2021/01/17 04:13:46;;;;;;;41.67;19.65;;;-0.50;99.90;;;0.07;90.48;100599.50;5001634;28;20030;-85
2021/01/17 04:16:12;;;;;;;37.10;19.33;;;-0.40;99.90;;;0.02;90.51;100602.31;5019137;28;20445;-83
2021/01/17 04:18:38;;;;;;;41.72;20.77;;;-0.40;99.90;;;0.02;90.52;100595.97;5022472;28;20175;-84
2021/01/17 04:21:04;;;;;;;39.92;18.88;;;-0.40;99.90;;;0.08;90.47;100603.88;5018588;28;20030;-84
2021/01/17 04:23:30;;;;;;;39.78;18.27;;;-0.40;99.90;;;0.08;90.69;100590.16;5031996;28;20057;-85
2021/01/17 04:25:57;;;;;;;40.00;19.40;;;-0.40;99.90;;;0.09;90.38;100589.06;5019886;28;20444;-83
2021/01/17 04:28:23;;;;;;;34.83;17.70;;;-0.40;99.90;;;0.13;90.16;100584.59;5024817;28;20095;-85
2021/01/17 04:30:50;;;;;;;39.53;19.90;;;-0.40;99.90;;;0.13;90.31;100594.78;5035475;28;20037;-84
2021/01/17 04:33:21;;;;;;;39.15;19.50;;;-0.40;99.90;;;0.13;90.35;100598.31;5011400;28;20101;-83
2021/01/17 04:35:48;;;;;;;39.85;18.63;;;-0.30;99.90;;;0.19;89.79;100599.13;5018056;28;20061;-84
2021/01/17 04:38:14;;;;;;;38.05;18.13;;;-0.30;99.90;;;0.29;89.44;100593.50;5014926;28;20031;-86
2021/01/17 04:40:40;;;;;;;33.90;17.80;;;-0.30;99.90;;;0.28;89.24;100595.44;5024888;28;20096;-84
2021/01/17 04:43:29;;;;;;;39.13;19.48;;;-0.30;99.90;;;0.24;89.45;100597.13;5022859;28;20029;-85
2021/01/17 04:46:02;;;;;;;35.58;18.05;;;-0.40;99.90;;;0.31;89.30;100591.28;5018583;28;20079;-86
2021/01/17 04:48:31;;;;;;;39.40;17.90;;;-0.30;99.90;;;0.28;89.26;100591.88;5016802;28;20044;-85
2021/01/17 04:51:04;;;;;;;37.85;18.75;;;-0.30;99.90;;;0.24;89.43;100588.88;5016618;28;20068;-83
2021/01/17 04:53:34;;;;;;;36.55;18.85;;;-0.30;99.90;;;0.15;89.50;100585.13;5009450;28;20398;-84
2021/01/17 04:56:42;;;;;;;36.05;17.67;;;-0.30;99.90;;;0.19;89.63;100577.97;5018772;28;20458;-85
2021/01/17 04:59:14;;;;;;;43.33;19.27;;;-0.30;99.90;;;0.25;89.49;100576.78;4995778;28;20105;-82
2021/01/17 05:01:46;;;;;;;44.15;19.85;;;-0.30;99.90;;;0.25;89.29;100573.22;5010109;28;20061;-86
2021/01/17 05:05:00;;;;;;;41.10;19.52;;;-0.30;99.90;;;0.29;89.41;100574.28;5017246;28;20034;-82
2021/01/17 05:07:37;;;;;;;40.83;19.23;;;-0.30;99.90;;;0.32;89.07;100570.94;4997450;28;20038;-82
2021/01/17 05:10:12;;;;;;;42.53;19.98;;;-0.30;99.90;;;0.25;89.42;100571.31;5016380;28;20121;-82
2021/01/17 05:12:53;;;;;;;38.22;18.00;;;-0.30;99.90;;;0.33;89.19;100575.31;5016139;28;20084;-84
2021/01/17 05:15:23;;;;;;;38.38;19.08;;;-0.30;99.90;;;0.23;89.08;100576.25;5016130;28;20393;-81
2021/01/17 05:17:55;;;;;;;44.92;18.73;;;-0.30;99.90;;;0.24;89.28;100575.16;5019653;28;20048;-82
2021/01/17 05:20:22;;;;;;;40.78;18.60;;;-0.20;99.90;;;0.15;89.37;100563.16;5016267;28;20540;-83
2021/01/17 05:22:50;;;;;;;38.90;18.85;;;-0.20;99.90;;;0.29;89.27;100566.03;5032536;28;20076;-85
2021/01/17 05:25:20;;;;;;;43.85;20.73;;;-0.20;99.90;;;0.25;89.12;100576.78;5016460;28;20049;-85
2021/01/17 05:27:49;;;;;;;42.38;19.98;;;-0.20;99.90;;;0.29;89.35;100577.03;5016512;28;20037;-83
2021/01/17 05:30:16;;;;;;;38.15;17.90;;;-0.20;99.90;;;0.23;89.45;100573.50;5009031;28;20440;-82
2021/01/17 05:32:43;;;;;;;41.60;20.20;;;-0.20;99.90;;;0.31;89.24;100572.88;5014208;28;20518;-82
2021/01/17 05:35:11;;;;;;;40.50;17.85;;;-0.20;99.90;;;0.25;89.57;100573.22;5014905;28;20501;-85
2021/01/17 05:37:52;;;;;;;38.70;18.95;;;-0.20;99.90;;;0.38;89.08;100578.03;5023229;28;20049;-84
2021/01/17 05:40:21;;;;;;;43.15;20.42;;;-0.20;99.90;;;0.40;89.05;100578.53;5016198;28;20029;-83
2021/01/17 05:42:49;;;;;;;37.28;19.30;;;-0.20;99.90;;;0.37;89.17;100584.63;5016697;28;20083;-84
2021/01/17 05:45:24;;;;;;;44.97;20.52;;;-0.20;99.90;;;0.28;89.42;100587.19;5024427;28;20064;-85
2021/01/17 05:47:58;;;;;;;41.67;20.42;;;-0.20;99.90;;;0.33;89.40;100583.56;5031075;28;20033;-82
2021/01/17 05:50:29;;;;;;;41.55;18.92;;;-0.20;99.90;;;0.34;89.51;100597.03;5048642;28;20162;-84
2021/01/17 05:52:59;;;;;;;42.75;20.33;;;-0.20;99.90;;;0.26;90.03;100602.31;5031027;28;20064;-85
2021/01/17 05:55:37;;;;;;;49.10;21.63;;;-0.20;99.90;;;0.29;89.79;100597.06;5034894;28;20064;-86
2021/01/17 05:58:31;;;;;;;39.70;19.55;;;-0.20;99.90;;;0.34;89.55;100599.75;5036336;28;20056;-83
2021/01/17 06:01:16;;;;;;;45.95;21.02;;;-0.20;99.90;;;0.33;89.91;100600.03;5027069;28;20033;-80
2021/01/17 06:03:55;;;;;;;47.00;21.02;;;-0.20;99.90;;;0.32;89.51;100609.41;5038927;28;20048;-80
2021/01/17 06:06:31;;;;;;;45.22;21.25;;;-0.20;99.90;;;0.29;89.71;100612.75;5022136;28;20022;-81
2021/01/17 06:08:59;;;;;;;47.55;21.45;;;-0.20;99.90;;;0.33;90.17;100616.53;5029072;28;20100;-80
2021/01/17 06:11:28;;;;;;;50.38;22.08;;;-0.20;99.90;;;0.41;89.48;100613.16;5032390;28;20045;-85
2021/01/17 06:14:01;;;;;;;48.08;21.77;;;-0.10;99.90;;;0.38;89.26;100606.31;5025228;28;20041;-79
2021/01/17 06:16:41;;;;;;;42.72;20.25;;;-0.10;99.90;;;0.42;89.33;100607.34;5040245;28;20053;-84
2021/01/17 06:19:12;;;;;;;47.97;21.67;;;-0.10;99.90;;;0.44;89.68;100613.41;5022875;28;20030;-86
2021/01/17 06:21:39;;;;;;;41.28;20.50;;;-0.10;99.90;;;0.50;89.22;100622.38;5007714;28;20116;-85
2021/01/17 06:24:10;;;;;;;48.50;21.02;;;-0.10;99.90;;;0.48;89.42;100613.63;5020492;28;20023;-83
2021/01/17 06:26:41;;;;;;;47.25;21.27;;;-0.10;99.90;;;0.49;89.51;100618.81;5041588;28;20055;-83
2021/01/17 06:29:11;;;;;;;43.13;20.30;;;-0.10;99.90;;;0.57;89.13;100614.63;5023084;28;20029;-82
2021/01/17 06:31:39;;;;;;;42.35;20.27;;;-0.10;99.90;;;0.50;89.44;100614.97;5021084;28;20026;-83
2021/01/17 06:34:11;;;;;;;44.50;20.90;;;-0.10;99.90;;;0.53;89.56;100627.31;5025354;28;20358;-82
2021/01/17 06:36:46;;;;;;;45.88;21.17;;;0.00;99.90;;;0.50;89.64;100625.13;5016227;28;20112;-85
2021/01/17 06:39:25;;;;;;;47.35;21.17;;;-0.10;99.90;;;0.55;89.50;100618.78;5007021;28;20060;-84
2021/01/17 06:41:57;;;;;;;48.35;21.23;;;0.00;99.90;;;0.59;89.60;100619.81;5025250;28;20121;-83
2021/01/17 06:44:34;;;;;;;47.08;20.80;;;0.00;99.90;;;0.61;89.32;100631.34;5024980;28;20079;-82
2021/01/17 06:47:02;;;;;;;43.58;19.90;;;0.00;99.90;;;0.61;89.20;100628.59;5024832;28;20033;-83
2021/01/17 06:49:36;;;;;;;45.55;19.70;;;0.00;99.90;;;0.48;89.94;100630.91;5011790;28;20038;-84
2021/01/17 06:52:06;;;;;;;48.33;22.33;;;0.00;99.90;;;0.56;90.03;100625.88;5006260;28;20093;-85
2021/01/17 06:54:40;;;;;;;46.70;19.92;;;0.00;99.90;;;0.53;90.04;100622.63;5034386;28;20057;-83
2021/01/17 06:57:38;;;;;;;47.50;21.25;;;0.00;99.90;;;0.55;89.88;100627.81;5025541;28;20041;-84
2021/01/17 07:00:22;;;;;;;46.05;21.80;;;0.10;99.90;;;0.42;90.05;100632.06;5029640;28;20035;-84
2021/01/17 07:03:15;;;;;;;45.83;20.77;;;0.00;99.90;;;0.59;89.61;100623.38;5047566;28;20033;-84
2021/01/17 07:06:35;;;;;;;42.22;20.40;;;0.00;99.90;;;0.52;89.81;100633.91;5017964;28;20029;-83
2021/01/17 07:09:25;;;;;;;47.75;21.83;;;0.00;99.90;;;0.57;89.94;100638.53;5003855;28;20037;-84
2021/01/17 07:13:01;;;;;;;44.95;19.75;;;0.00;99.90;;;0.51;89.65;100630.31;5017141;28;20025;-84
2021/01/17 07:15:38;;;;;;;47.85;20.90;;;0.00;99.90;;;0.55;89.80;100640.75;4987828;28;20111;-84
2021/01/17 07:18:17;;;;;;;46.95;21.42;;;0.00;99.90;;;0.46;89.93;100635.06;5038332;28;20025;-82
2021/01/17 07:21:04;;;;;;;48.10;21.30;;;0.10;99.90;;;0.52;90.16;100636.66;5020096;28;20061;-84
2021/01/17 07:23:38;;;;;;;46.92;21.23;;;0.00;99.90;;;0.48;90.01;100644.66;5013355;28;20026;-83
2021/01/17 07:26:09;;;;;;;56.03;22.30;;;0.00;99.90;;;0.49;90.10;100649.03;5027332;28;20080;-85
2021/01/17 07:28:45;;;;;;;44.83;21.80;;;0.00;99.90;;;0.63;89.96;100651.09;5011413;28;20371;-83
2021/01/17 07:31:24;;;;;;;51.50;23.08;;;0.10;99.90;;;0.56;90.21;100645.13;5019256;28;20021;-84
2021/01/17 07:33:53;;;;;;;49.25;22.63;;;0.00;99.90;;;0.60;90.39;100654.44;5011576;28;20041;-84
2021/01/17 07:36:29;;;;;;;54.90;23.17;;;0.10;99.90;;;0.55;90.52;100657.25;5027150;28;20075;-84
2021/01/17 07:38:56;;;;;;;53.15;21.88;;;0.10;99.90;;;0.62;90.40;100672.25;5026489;28;20098;-84
2021/01/17 07:41:32;;;;;;;54.47;22.75;;;0.10;99.90;;;0.63;90.40;100678.59;5026628;28;20068;-84
2021/01/17 07:44:02;;;;;;;47.40;21.52;;;0.10;99.90;;;0.65;90.48;100671.69;5027613;28;20110;-84
2021/01/17 07:46:32;;;;;;;58.47;24.15;;;0.10;99.90;;;0.70;90.49;100677.13;5030267;28;20038;-83
2021/01/17 07:49:02;;;;;;;52.08;22.42;;;0.10;99.90;;;0.67;90.75;100677.72;5030507;28;20029;-84
2021/01/17 07:51:28;;;;;;;51.78;23.17;;;0.10;99.90;;;0.70;90.73;100676.31;5030736;28;20033;-84
2021/01/17 07:54:19;;;;;;;51.85;22.30;;;0.10;99.90;;;0.74;90.92;100680.91;5046901;28;20401;-84
2021/01/17 07:56:49;;;;;;;53.45;22.45;;;0.10;99.90;;;0.69;91.13;100685.66;5041208;28;20029;-83
2021/01/17 07:59:35;;;;;;;55.03;23.58;;;0.10;99.90;;;0.78;90.72;100689.41;5032228;28;20025;-84
2021/01/17 08:02:23;;;;;;;52.40;23.30;;;0.10;99.90;;;0.83;90.66;100692.13;5033373;28;20108;-84
2021/01/17 08:05:04;;;;;;;57.55;24.30;;;0.20;99.90;;;0.89;90.50;100693.69;5030797;28;20033;-84
2021/01/17 08:07:35;;;;;;;53.25;25.25;;;0.20;99.90;;;0.82;90.60;100699.53;5034801;28;20550;-86
2021/01/17 08:10:03;;;;;;;47.83;22.58;;;0.20;99.90;;;0.86;90.75;100703.34;5025737;28;20052;-83
2021/01/17 08:12:43;;;;;;;47.53;21.35;;;0.20;99.90;;;0.88;90.71;100709.38;5025148;28;20026;-85
2021/01/17 08:15:22;;;;;;;54.63;22.80;;;0.20;99.90;;;0.84;90.82;100710.22;5027542;28;20069;-87
2021/01/17 08:17:50;;;;;;;51.17;22.33;;;0.20;99.90;;;0.77;90.85;100698.78;5038397;28;20205;-84
2021/01/17 08:20:29;;;;;;;51.88;22.58;;;0.30;99.90;;;0.87;90.46;100704.13;5020200;28;20029;-85
2021/01/17 08:23:05;;;;;;;57.60;23.33;;;0.30;99.90;;;0.94;90.61;100715.63;5041819;28;20022;-86
2021/01/17 08:26:04;;;;;;;52.22;23.10;;;0.30;99.90;;;0.93;90.21;100722.25;5019868;28;20038;-86
2021/01/17 08:28:36;;;;;;;56.70;23.42;;;0.30;99.90;;;0.88;90.38;100711.28;4992471;28;20477;-84
2021/01/17 08:31:37;;;;;;;53.92;23.15;;;0.30;99.90;;;0.93;90.45;100708.50;5007198;28;20176;-84
2021/01/17 08:34:11;;;;;;;50.90;23.15;;;0.30;99.90;;;0.83;91.24;100708.63;5003346;28;20021;-84
2021/01/17 08:36:38;;;;;;;51.70;22.33;;;0.30;99.90;;;0.89;90.76;100716.50;5017282;28;20030;-85
2021/01/17 08:39:05;;;;;;;47.67;21.88;;;0.30;99.90;;;0.94;90.72;100715.63;5018031;28;20040;-87
2021/01/17 08:41:34;;;;;;;52.97;22.63;;;0.40;99.90;;;1.00;90.55;100719.94;5018162;28;20391;-86
2021/01/17 08:44:00;;;;;;;50.80;22.17;;;0.40;99.90;;;1.02;90.27;100724.06;5010472;28;20485;-86
2021/01/17 08:46:40;;;;;;;51.80;22.27;;;0.40;99.90;;;1.13;89.93;100723.91;5022262;28;20067;-84
2021/01/17 08:49:11;;;;;;;53.85;23.08;;;0.50;99.90;;;1.20;89.87;100732.63;5036612;28;20029;-82
2021/01/17 08:51:38;;;;;;;50.60;21.42;;;0.50;99.90;;;1.19;89.70;100734.56;5055487;28;20013;-84
2021/01/17 08:54:25;;;;;;;56.15;22.55;;;0.50;99.90;;;1.20;89.63;100732.63;5021773;28;20200;-83
2021/01/17 08:56:51;;;;;;;55.03;23.25;;;0.50;99.90;;;1.14;90.09;100729.13;5012023;28;20048;-85
2021/01/17 08:59:36;;;;;;;57.15;25.48;;;0.50;99.90;;;1.16;90.39;100743.41;5017717;28;20035;-82
2021/01/17 09:02:03;;;;;;;58.88;24.45;;;0.50;99.90;;;1.11;90.47;100748.16;5029283;28;20064;-84
2021/01/17 09:04:35;;;;;;;61.13;25.33;;;0.50;99.90;;;1.13;90.60;100759.69;5039275;28;20041;-84
2021/01/17 09:07:04;;;;;;;60.05;23.20;;;0.50;99.90;;;1.15;90.63;100768.47;5006127;28;20030;-85
2021/01/17 09:09:32;;;;;;;53.70;22.25;;;0.50;99.90;;;1.12;90.78;100767.13;5007504;28;20064;-87
2021/01/17 09:12:11;;;;;;;60.22;23.65;;;0.50;99.90;;;1.07;91.43;100767.19;5006441;28;20037;-85
2021/01/17 09:14:38;;;;;;;59.85;24.10;;;0.40;99.90;;;1.14;91.41;100769.56;5005857;28;20038;-86
2021/01/17 09:17:09;;;;;;;62.22;24.45;;;0.40;99.90;;;1.18;91.27;100768.72;5007132;28;20041;-84
2021/01/17 09:19:37;;;;;;;54.63;23.05;;;0.50;99.90;;;1.14;91.72;100775.06;5007223;28;20030;-84
2021/01/17 09:22:07;;;;;;;59.55;24.70;;;0.50;99.90;;;1.05;92.15;100772.16;5023918;28;20042;-85
2021/01/17 09:24:40;;;;;;;60.47;24.23;;;0.40;99.90;;;1.06;92.30;100774.59;5009637;28;20084;-85
2021/01/17 09:27:09;;;;;;;62.50;25.60;;;0.50;99.90;;;1.22;92.32;100780.75;5011158;28;20044;-84
2021/01/17 09:29:41;;;;;;;61.22;26.23;;;0.50;99.90;;;1.30;91.71;100780.13;5017293;28;20093;-86
2021/01/17 09:32:14;;;;;;;63.42;24.88;;;0.60;99.90;;;1.33;91.78;100787.78;4998232;28;20034;-87
2021/01/17 09:34:49;;;;;;;58.53;23.25;;;0.60;99.90;;;1.28;91.88;100787.03;5019524;28;20083;-85
2021/01/17 09:37:21;;;;;;;65.82;25.85;;;0.60;99.90;;;1.34;91.50;100794.94;4999718;28;20040;-86
2021/01/17 09:39:51;;;;;;;66.80;25.35;;;0.70;99.90;;;1.32;91.56;100796.31;5016555;28;20030;-87
2021/01/17 09:42:23;;;;;;;60.45;25.60;;;0.70;99.90;;;1.37;91.40;100790.78;4998165;28;20026;-86
2021/01/17 09:45:00;;;;;;;56.53;24.08;;;0.70;99.90;;;1.37;91.24;100799.03;4999066;28;20033;-84
2021/01/17 09:47:28;;;;;;;66.57;24.73;;;0.70;99.90;;;1.48;91.27;100806.03;5000743;28;20097;-84
2021/01/17 09:50:08;;;;;;;58.15;23.67;;;0.80;99.90;;;1.68;90.70;100803.03;4997096;28;20197;-83
2021/01/17 09:52:41;;;;;;;60.72;25.95;;;0.90;99.90;;;1.53;91.03;100794.97;5000883;28;20037;-84
2021/01/17 09:55:10;;;;;;;55.97;23.95;;;1.00;99.90;;;1.70;90.80;100797.25;5000906;28;20030;-83
2021/01/17 09:57:39;;;;;;;59.30;25.38;;;1.10;99.90;;;1.93;89.88;100801.84;4998455;28;20022;-85
2021/01/17 10:00:23;;;;;;;61.67;26.25;;;1.20;99.90;;;2.01;89.40;100807.53;4997745;28;20026;-84
2021/01/17 10:02:50;;;;;;;59.72;23.52;;;1.30;99.90;;;2.21;88.81;100819.38;4998013;28;20026;-83
2021/01/17 10:05:29;;;;;;;55.05;22.67;;;1.40;99.90;;;2.05;88.43;100816.84;4997833;28;20436;-81
2021/01/17 10:08:13;;;;;;;57.10;22.45;;;1.40;99.90;;;2.00;88.43;100816.91;4998294;28;20034;-84
2021/01/17 10:10:47;;;;;;;48.60;21.33;;;1.40;99.90;;;2.18;88.27;100831.81;4997995;28;20076;-82
2021/01/17 10:13:13;;;;;;;49.03;22.63;;;1.50;99.90;;;2.35;87.82;100839.53;4998614;28;20421;-85
2021/01/17 10:15:40;;;;;;;48.40;20.83;;;1.50;99.90;;;2.32;87.50;100834.63;4998054;28;20030;-86
2021/01/17 10:18:09;;;;;;;45.97;20.30;;;1.50;99.90;;;2.09;88.10;100834.41;4997698;28;20033;-85
2021/01/17 10:20:42;;;;;;;52.58;21.80;;;1.40;99.90;;;2.13;87.90;100838.22;5020197;28;20028;-84
2021/01/17 10:23:13;;;;;;;45.78;21.73;;;1.40;99.90;;;2.03;88.13;100835.59;5032448;28;20048;-85
2021/01/17 10:25:39;;;;;;;51.13;22.88;;;1.40;99.90;;;2.02;88.49;100839.47;5034845;28;20033;-83
2021/01/17 10:28:09;;;;;;;50.63;21.77;;;1.40;99.90;;;2.04;88.48;100836.41;5018516;28;20303;-84
2021/01/17 10:30:40;;;;;;;51.88;22.15;;;1.40;99.90;;;2.10;88.34;100829.72;5036068;28;20029;-86